Time;durP1;ratioP1;P1;durP2;ratioP2;P2;SDS_P1;SDS_P2;PMS_P1;PMS_P2;Temp;Humidity;BMP_temperature;BMP_pressure;BME280_temperature;BME280_humidity;BME280_pressure;Samples;Min_cycle;Max_cycle;Signal;HPM_P1;HPM_P2
2022/01/16 00:00:21;;;;;;;70.85;38.70;;;;;;;;;;5059463;28;20470;-93
2022/01/16 00:05:20;;;;;;;68.70;39.42;;;;;;;;;;5059519;28;20021;-91
2022/01/16 00:07:47;;;;;;;76.13;42.63;;;;;;;;;;5059065;28;20079;-92
2022/01/16 00:10:13;;;;;;;75.60;42.67;;;;;;;;;;5059032;28;20127;-93
2022/01/16 00:12:39;;;;;;;74.93;42.13;;;;;;;;;;5059891;28;20033;-92
2022/01/16 00:15:07;;;;;;;80.03;44.03;;;;;;;;;;5059116;28;20025;-93
2022/01/16 00:17:41;;;;;;;81.95;44.03;;;;;;;;;;5059833;28;20096;-92
2022/01/16 00:20:08;;;;;;;79.25;43.83;;;;;;;;;;5059544;28;20045;-93
2022/01/16 00:22:38;;;;;;;76.95;42.90;;;;;;;;;;5058579;28;20025;-93
2022/01/16 00:25:04;;;;;;;75.63;40.60;;;;;;;;;;5059797;28;20036;-92
2022/01/16 00:27:30;;;;;;;70.90;40.25;;;;;;;;;;5058887;28;20140;-96
2022/01/16 00:29:56;;;;;;;69.22;39.20;;;;;;;;;;5059729;28;20032;-94
2022/01/16 00:32:22;;;;;;;69.95;38.95;;;;;;;;;;5059639;28;20029;-93
2022/01/16 00:34:48;;;;;;;70.57;40.05;;;;;;;;;;5059543;28;20021;-93
2022/01/16 00:37:14;;;;;;;70.45;41.10;;;;;;;;;;5059415;28;20070;-93
2022/01/16 00:39:40;;;;;;;66.50;38.15;;;;;;;;;;5059725;28;20021;-92
2022/01/16 00:42:07;;;;;;;64.78;37.17;;;;;;;;;;5059410;28;20055;-93
2022/01/16 00:44:33;;;;;;;67.63;38.05;;;;;;;;;;5058472;28;20029;-94
2022/01/16 00:46:59;;;;;;;68.30;38.20;;;;;;;;;;5059434;28;20075;-94
2022/01/16 00:49:25;;;;;;;68.43;38.53;;;;;;;;;;5059371;28;20028;-93
2022/01/16 00:51:51;;;;;;;65.25;38.83;;;;;;;;;;5058284;28;20127;-93
2022/01/16 00:54:17;;;;;;;70.75;39.20;;;;;;;;;;5058289;28;20075;-95
2022/01/16 00:56:43;;;;;;;73.20;41.10;;;;;;;;;;5059170;28;20021;-93
2022/01/16 00:59:09;;;;;;;64.32;37.95;;;;;;;;;;5058284;28;20017;-94
2022/01/16 01:01:35;;;;;;;64.70;37.75;;;;;;;;;;5058945;28;20100;-93
2022/01/16 01:04:01;;;;;;;69.00;38.03;;;;;;;;;;5058102;28;20032;-94
2022/01/16 01:06:27;;;;;;;68.40;38.65;;;;;;;;;;5059022;28;20055;-92
2022/01/16 01:08:53;;;;;;;66.28;39.72;;;;;;;;;;5057839;28;20057;-92
2022/01/16 01:11:24;;;;;;;66.30;37.97;;;;;;;;;;5058827;28;20380;-95
2022/01/16 01:19:17;;;;;;;64.38;39.38;;;;;;;;;;5058910;28;20043;-95
2022/01/16 01:21:44;;;;;;;66.30;38.42;;;;;;;;;;5058594;28;20025;-96
2022/01/16 01:24:10;;;;;;;68.78;39.28;;;;;;;;;;5057601;28;20426;-95
2022/01/16 01:26:45;;;;;;;69.80;39.53;;;;;;;;;;5058795;28;20029;-93
2022/01/16 01:29:15;;;;;;;73.07;41.35;;;;;;;;;;5057526;28;20033;-93
2022/01/16 01:31:42;;;;;;;77.55;41.58;;;;;;;;;;5058264;28;20021;-92
2022/01/16 01:34:08;;;;;;;63.38;38.20;;;;;;;;;;5058744;28;20338;-92
2022/01/16 01:36:34;;;;;;;73.07;41.00;;;;;;;;;;5058632;28;20391;-92
2022/01/16 01:39:00;;;;;;;77.40;41.45;;;;;;;;;;5058330;28;20108;-92
2022/01/16 01:41:28;;;;;;;70.82;38.72;;;;;;;;;;5056916;28;20025;-93
2022/01/16 01:52:17;;;;;;;72.95;41.25;;;;;;;;;;5036897;28;20379;-93
2022/01/16 01:54:43;;;;;;;73.90;39.80;;;;;;;;;;5036534;28;20056;-93
2022/01/16 01:57:09;;;;;;;71.65;40.08;;;;;;;;;;5036663;28;20415;-92
2022/01/16 01:59:39;;;;;;;72.05;42.10;;;;;;;;;;5036769;28;20021;-92
2022/01/16 02:02:05;;;;;;;74.38;41.30;;;;;;;;;;5019654;28;20390;-92
2022/01/16 02:04:32;;;;;;;76.95;43.08;;;;;;;;;;5019849;28;20041;-91
2022/01/16 02:06:58;;;;;;;67.05;39.92;;;;;;;;;;5036533;28;20108;-91
2022/01/16 02:09:25;;;;;;;71.45;40.35;;;;;;;;;;5036091;28;20026;-92
2022/01/16 02:11:52;;;;;;;67.75;39.30;;;;;;;;;;5036116;28;20060;-92
2022/01/16 02:36:19;;;;;;;64.45;34.67;;;;;;;;;;4957898;28;20066;-92
2022/01/16 02:38:47;;;;;;;60.83;35.40;;;;;;;;;;4957884;28;20027;-93
2022/01/16 02:41:13;;;;;;;60.08;36.13;;;;;;;;;;4957920;29;20470;-92
2022/01/16 02:43:46;;;;;;;61.90;33.72;;;;;;;;;;4957643;28;20441;-92
2022/01/16 02:48:42;;;;;;;57.35;33.17;;;;;;;;;;4957722;29;20031;-93
2022/01/16 02:51:08;;;;;;;57.33;33.55;;;;;;;;;;4958021;29;20023;-93
2022/01/16 02:53:34;;;;;;;57.60;32.58;;;;;;;;;;4978902;28;20129;-93
2022/01/16 02:56:00;;;;;;;61.85;33.63;;;;;;;;;;5035781;28;20099;-93
2022/01/16 02:58:26;;;;;;;47.20;30.05;;;;;;;;;;5019405;28;20022;-92
2022/01/16 03:00:53;;;;;;;48.42;28.17;;;;;;;;;;5035875;28;20026;-93
2022/01/16 03:03:19;;;;;;;49.35;28.13;;;;;;;;;;5048609;28;20041;-93
2022/01/16 03:05:45;;;;;;;49.45;28.90;;;;;;;;;;5056422;28;20025;-94
2022/01/16 03:08:11;;;;;;;55.15;30.75;;;;;;;;;;5056209;28;20024;-93
2022/01/16 03:13:15;;;;;;;56.95;32.53;;;;;;;;;;5057357;28;20127;-95
2022/01/16 03:15:42;;;;;;;57.63;32.20;;;;;;;;;;5057126;28;20406;-94
2022/01/16 03:23:21;;;;;;;63.38;32.65;;;;;;;;;;5057575;28;20079;-95
2022/01/16 03:25:48;;;;;;;60.90;31.98;;;;;;;;;;5057192;28;20071;-95
2022/01/16 03:28:14;;;;;;;58.88;31.63;;;;;;;;;;5056839;28;20053;-94
2022/01/16 03:30:41;;;;;;;61.00;33.78;;;;;;;;;;5057036;28;20033;-95
2022/01/16 03:33:07;;;;;;;63.38;33.20;;;;;;;;;;5056683;28;20033;-94
2022/01/16 03:35:34;;;;;;;63.13;32.80;;;;;;;;;;5056688;28;20051;-95
2022/01/16 03:38:00;;;;;;;61.08;31.80;;;;;;;;;;5057041;28;20051;-94
2022/01/16 03:40:26;;;;;;;57.15;31.75;;;;;;;;;;5059147;28;20399;-93
2022/01/16 03:42:53;;;;;;;60.10;32.55;;;;;;;;;;5059589;28;20057;-93
2022/01/16 03:45:19;;;;;;;71.25;35.47;;;;;;;;;;5060771;28;20021;-95
2022/01/16 03:47:45;;;;;;;65.95;36.13;;;;;;;;;;5060502;28;20399;-95
2022/01/16 03:50:11;;;;;;;70.75;36.75;;;;;;;;;;5060164;28;20077;-93
2022/01/16 03:52:38;;;;;;;65.57;35.20;;;;;;;;;;5059446;28;20025;-96
2022/01/16 03:55:07;;;;;;;64.07;35.33;;;;;;;;;;5060343;28;20025;-96
2022/01/16 03:57:33;;;;;;;60.80;34.35;;;;;;;;;;5060222;28;20025;-94
2022/01/16 03:59:59;;;;;;;61.45;35.35;;;;;;;;;;5059042;28;20029;-96
2022/01/16 04:02:25;;;;;;;61.75;35.75;;;;;;;;;;5059288;28;20064;-96
2022/01/16 04:04:51;;;;;;;61.20;35.42;;;;;;;;;;5060108;28;20033;-96
2022/01/16 04:07:24;;;;;;;59.90;34.03;;;;;;;;;;5060328;28;20056;-95
2022/01/16 04:09:51;;;;;;;53.25;32.70;;;;;;;;;;5060049;28;20441;-94
2022/01/16 04:12:21;;;;;;;55.17;32.88;;;;;;;;;;5075457;28;20132;-96
2022/01/16 04:17:15;;;;;;;192.55;96.40;;;;;;;;;;5080275;28;20021;-96
2022/01/16 04:19:41;;;;;;;135.77;74.40;;;;;;;;;;5080197;28;20036;-96
2022/01/16 04:22:07;;;;;;;106.35;60.80;;;;;;;;;;5079955;28;20028;-95
2022/01/16 04:24:33;;;;;;;85.03;48.85;;;;;;;;;;5079759;28;20028;-95
2022/01/16 04:26:59;;;;;;;78.55;44.85;;;;;;;;;;5079206;28;20081;-95
2022/01/16 04:29:26;;;;;;;75.25;45.30;;;;;;;;;;5079794;28;20050;-96
2022/01/16 04:31:54;;;;;;;67.97;41.88;;;;;;;;;;5079828;28;20123;-94
2022/01/16 04:34:20;;;;;;;61.00;38.22;;;;;;;;;;5078834;28;20021;-94
2022/01/16 04:36:46;;;;;;;70.45;40.70;;;;;;;;;;5078689;28;20044;-96
2022/01/16 04:39:16;;;;;;;71.13;41.67;;;;;;;;;;5078502;28;20024;-94
2022/01/16 04:44:27;;;;;;;76.13;43.70;;;;;;;;;;5079551;28;20039;-95
2022/01/16 04:46:54;;;;;;;79.75;45.22;;;;;;;;;;5078742;28;20036;-94
2022/01/16 04:49:20;;;;;;;79.20;47.75;;;;;;;;;;5079546;28;20021;-94
2022/01/16 04:51:46;;;;;;;79.70;46.00;;;;;;;;;;5079067;28;20024;-94
2022/01/16 04:54:12;;;;;;;75.45;43.80;;;;;;;;;;5079018;28;20074;-95
2022/01/16 04:56:41;;;;;;;77.05;45.55;;;;;;;;;;5079094;28;20059;-94
2022/01/16 04:59:07;;;;;;;83.22;47.60;;;;;;;;;;5078108;28;20406;-94
2022/01/16 05:01:34;;;;;;;75.80;44.53;;;;;;;;;;5079041;28;20398;-95
2022/01/16 05:04:00;;;;;;;72.63;43.70;;;;;;;;;;5079266;28;20024;-94
2022/01/16 05:06:26;;;;;;;81.28;46.00;;;;;;;;;;5079029;28;20071;-94
2022/01/16 05:08:52;;;;;;;84.05;46.95;;;;;;;;;;5078994;28;20052;-94
2022/01/16 05:11:24;;;;;;;87.25;48.40;;;;;;;;;;5078865;28;20033;-96
2022/01/16 05:22:05;;;;;;;116.78;63.58;;;;;;;;;;5078690;28;20077;-96
2022/01/16 05:24:33;;;;;;;110.35;60.55;;;;;;;;;;5077768;28;20051;-95
2022/01/16 05:27:00;;;;;;;100.18;56.22;;;;;;;;;;5077957;28;20078;-96
2022/01/16 05:29:26;;;;;;;105.53;56.75;;;;;;;;;;5077736;28;20112;-95
2022/01/16 05:31:52;;;;;;;118.43;61.00;;;;;;;;;;5078361;28;20028;-95
2022/01/16 05:34:18;;;;;;;203.48;107.53;;;;;;;;;;5078864;28;20017;-94
2022/01/16 05:36:45;;;;;;;186.13;94.82;;;;;;;;;;5077230;28;20023;-94
2022/01/16 05:39:11;;;;;;;137.10;71.85;;;;;;;;;;5078295;28;20025;-96
2022/01/16 05:41:37;;;;;;;124.15;62.25;;;;;;;;;;5078271;28;20036;-95
2022/01/16 05:44:03;;;;;;;115.40;60.90;;;;;;;;;;5077243;28;20111;-95
2022/01/16 05:46:29;;;;;;;103.57;56.78;;;;;;;;;;5078469;28;20341;-95
2022/01/16 05:52:05;;;;;;;88.93;47.15;;;;;;;;;;5078179;28;20090;-95
2022/01/16 05:54:31;;;;;;;107.60;58.75;;;;;;;;;;5078098;28;20056;-96
2022/01/16 05:56:57;;;;;;;174.32;84.85;;;;;;;;;;5077140;28;20032;-95
2022/01/16 05:59:23;;;;;;;199.27;102.35;;;;;;;;;;5078076;28;20024;-95
2022/01/16 06:01:49;;;;;;;195.65;102.25;;;;;;;;;;5076602;28;20028;-96
2022/01/16 06:04:15;;;;;;;177.98;91.93;;;;;;;;;;5078184;28;20032;-95
2022/01/16 06:06:41;;;;;;;153.02;79.47;;;;;;;;;;5077672;28;20415;-94
2022/01/16 06:09:07;;;;;;;168.85;84.30;;;;;;;;;;5077828;28;20096;-94
2022/01/16 06:11:33;;;;;;;159.40;82.50;;;;;;;;;;5077708;28;20048;-95
2022/01/16 06:13:59;;;;;;;131.18;68.95;;;;;;;;;;5077304;28;20024;-93
2022/01/16 06:16:25;;;;;;;127.38;64.05;;;;;;;;;;5078062;28;20032;-94
2022/01/16 06:18:53;;;;;;;121.38;63.00;;;;;;;;;;5077799;28;20024;-94
2022/01/16 06:21:19;;;;;;;115.00;61.75;;;;;;;;;;5077550;28;20021;-95
2022/01/16 06:23:45;;;;;;;128.25;67.38;;;;;;;;;;5077242;28;20054;-95
2022/01/16 06:26:11;;;;;;;130.15;68.78;;;;;;;;;;5077332;28;20405;-95
2022/01/16 06:28:37;;;;;;;129.25;67.40;;;;;;;;;;5077556;28;20028;-95
2022/01/16 06:31:04;;;;;;;116.78;61.15;;;;;;;;;;5076656;28;20410;-95
2022/01/16 06:33:30;;;;;;;104.22;57.40;;;;;;;;;;5076509;28;20418;-95
2022/01/16 06:35:56;;;;;;;160.95;79.78;;;;;;;;;;5077602;28;20024;-95
2022/01/16 06:38:22;;;;;;;195.07;90.40;;;;;;;;;;5077201;28;20120;-95
2022/01/16 06:40:48;;;;;;;161.05;77.78;;;;;;;;;;5077542;28;20041;-95
2022/01/16 06:43:14;;;;;;;223.02;113.95;;;;;;;;;;5076081;28;20369;-95
2022/01/16 06:45:40;;;;;;;329.85;156.57;;;;;;;;;;5077481;28;20456;-94
2022/01/16 06:48:06;;;;;;;603.80;323.52;;;;;;;;;;5076747;28;20045;-96
2022/01/16 06:50:32;;;;;;;738.38;404.75;;;;;;;;;;5076686;28;20027;-96
2022/01/16 06:52:59;;;;;;;568.40;316.27;;;;;;;;;;5076403;28;20036;-96
2022/01/16 06:55:25;;;;;;;480.52;260.38;;;;;;;;;;5076499;28;20063;-95
2022/01/16 06:57:51;;;;;;;782.22;359.98;;;;;;;;;;5077128;28;20025;-95
2022/01/16 07:00:18;;;;;;;902.78;394.33;;;;;;;;;;5076742;28;20029;-94
2022/01/16 07:02:44;;;;;;;588.10;278.92;;;;;;;;;;5076966;28;20058;-95
2022/01/16 07:08:36;;;;;;;1097.07;523.88;;;;;;;;;;5077469;28;20059;-94
2022/01/16 07:11:02;;;;;;;796.85;386.00;;;;;;;;;;5076262;28;20031;-96
2022/01/16 07:13:29;;;;;;;582.95;293.25;;;;;;;;;;5076267;28;20426;-96
2022/01/16 07:15:55;;;;;;;345.75;168.90;;;;;;;;;;5080461;28;20052;-95
2022/01/16 07:18:21;;;;;;;746.65;372.10;;;;;;;;;;5081336;28;20421;-94
2022/01/16 07:20:47;;;;;;;1064.20;510.58;;;;;;;;;;5081015;28;20417;-95
2022/01/16 07:23:14;;;;;;;1252.40;587.08;;;;;;;;;;5080006;28;20028;-96
2022/01/16 07:25:40;;;;;;;761.80;371.27;;;;;;;;;;5080750;28;20422;-94
2022/01/16 07:28:07;;;;;;;596.65;295.63;;;;;;;;;;5079813;28;20029;-95
2022/01/16 07:30:33;;;;;;;664.50;316.35;;;;;;;;;;5079685;28;20052;-94
2022/01/16 07:32:59;;;;;;;676.90;306.75;;;;;;;;;;5080933;28;20351;-96
2022/01/16 07:38:29;;;;;;;689.13;303.83;;;;;;;;;;5080725;28;20033;-95
2022/01/16 07:40:55;;;;;;;704.05;309.88;;;;;;;;;;5079762;28;20028;-95
2022/01/16 07:43:21;;;;;;;690.05;300.20;;;;;;;;;;5079930;28;20056;-95
2022/01/16 07:45:48;;;;;;;638.42;287.90;;;;;;;;;;5080932;28;20048;-96
2022/01/16 07:48:14;;;;;;;595.88;277.48;;;;;;;;;;5079539;28;20028;-96
2022/01/16 07:53:43;;;;;;;490.35;224.35;;;;;;;;;;5080462;28;20115;-96
2022/01/16 07:56:09;;;;;;;333.13;151.00;;;;;;;;;;5079161;28;20064;-96
2022/01/16 07:58:36;;;;;;;326.17;148.98;;;;;;;;;;5080429;28;20021;-96
2022/01/16 08:01:03;;;;;;;305.90;139.68;;;;;;;;;;5079510;28;20028;-94
2022/01/16 08:03:29;;;;;;;286.05;126.63;;;;;;;;;;5079332;28;20028;-94
2022/01/16 08:08:58;;;;;;;237.23;118.28;;;;;;;;;;5080382;28;20070;-96
2022/01/16 08:11:25;;;;;;;189.13;98.38;;;;;;;;;;5079938;28;20037;-94
2022/01/16 08:13:51;;;;;;;155.90;83.53;;;;;;;;;;5079988;28;20029;-94
2022/01/16 08:16:17;;;;;;;154.98;83.07;;;;;;;;;;5079691;28;20048;-94
2022/01/16 08:18:43;;;;;;;367.30;144.82;;;;;;;;;;5079349;28;20033;-95
2022/01/16 08:24:13;;;;;;;190.45;89.63;;;;;;;;;;5059905;28;20074;-94
2022/01/16 08:26:39;;;;;;;230.07;99.63;;;;;;;;;;5078964;28;20024;-94
2022/01/16 08:29:05;;;;;;;151.77;76.40;;;;;;;;;;5079750;28;20020;-96
2022/01/16 08:31:31;;;;;;;127.00;69.38;;;;;;;;;;5080022;28;20071;-95
2022/01/16 08:33:58;;;;;;;150.27;76.63;;;;;;;;;;5078777;28;20031;-96
2022/01/16 08:39:28;;;;;;;152.15;76.38;;;;;;;;;;5079890;28;20070;-96
2022/01/16 08:41:54;;;;;;;202.25;93.18;;;;;;;;;;5078962;28;20036;-95
2022/01/16 08:44:20;;;;;;;132.48;72.75;;;;;;;;;;5079368;28;20028;-95
2022/01/16 08:46:46;;;;;;;143.93;77.05;;;;;;;;;;5079417;28;20036;-95
2022/01/16 08:49:13;;;;;;;128.25;70.43;;;;;;;;;;5079285;28;20020;-95
2022/01/16 08:51:39;;;;;;;119.13;66.88;;;;;;;;;;5079505;28;20062;-94
2022/01/16 08:54:05;;;;;;;101.95;59.63;;;;;;;;;;5078360;28;20032;-96
2022/01/16 08:56:31;;;;;;;109.20;59.97;;;;;;;;;;5078767;28;20033;-95
2022/01/16 08:58:57;;;;;;;104.60;59.72;;;;;;;;;;5078628;28;20032;-95
2022/01/16 09:01:24;;;;;;;106.45;58.97;;;;;;;;;;5079084;28;20060;-95
2022/01/16 09:03:51;;;;;;;113.32;59.05;;;;;;;;;;5079398;28;20036;-96
2022/01/16 09:06:35;;;;;;;116.30;60.63;;;;;;;;;;5078345;28;20086;-95
2022/01/16 09:09:01;;;;;;;113.63;58.67;;;;;;;;;;5078545;28;20048;-95
2022/01/16 09:11:28;;;;;;;93.38;54.63;;;;;;;;;;5079079;28;20036;-96
2022/01/16 09:13:54;;;;;;;80.88;46.33;;;;;;;;;;5078762;28;20104;-95
2022/01/16 09:16:21;;;;;;;68.20;41.58;;;;;;;;;;5079628;28;20097;-93
2022/01/16 09:18:48;;;;;;;67.75;42.40;;;;;;;;;;5078810;28;20403;-92
2022/01/16 09:21:32;;;;;;;69.47;42.10;;;;;;;;;;5061723;28;20028;-93
2022/01/16 09:23:58;;;;;;;67.10;41.17;;;;;;;;;;5065550;28;20351;-93
2022/01/16 09:26:26;;;;;;;68.20;41.42;;;;;;;;;;5077797;28;20086;-94
2022/01/16 09:28:52;;;;;;;68.70;41.80;;;;;;;;;;5078844;28;20330;-92
2022/01/16 09:31:18;;;;;;;69.97;42.60;;;;;;;;;;5078614;28;20025;-94
2022/01/16 09:33:44;;;;;;;65.72;41.22;;;;;;;;;;5078287;28;20467;-92
2022/01/16 09:36:11;;;;;;;78.95;45.10;;;;;;;;;;5071320;28;20032;-91
2022/01/16 09:38:38;;;;;;;73.68;43.38;;;;;;;;;;5057831;28;20025;-93
2022/01/16 09:41:05;;;;;;;73.93;42.75;;;;;;;;;;5063566;28;20020;-94
2022/01/16 09:43:32;;;;;;;66.97;39.88;;;;;;;;;;5078154;28;20132;-92
2022/01/16 09:45:59;;;;;;;67.80;41.30;;;;;;;;;;5078733;28;20468;-92
2022/01/16 09:48:25;;;;;;;69.15;41.45;;;;;;;;;;5079017;28;20028;-95
2022/01/16 09:50:51;;;;;;;68.13;41.58;;;;;;;;;;5064798;28;20025;-94
2022/01/16 09:53:17;;;;;;;76.35;47.63;;;;;;;;;;5070055;28;20028;-95
2022/01/16 09:55:43;;;;;;;86.95;53.35;;;;;;;;;;5077971;28;20021;-92
2022/01/16 09:58:09;;;;;;;99.18;59.90;;;;;;;;;;5077089;28;20020;-93
2022/01/16 10:00:36;;;;;;;103.07;61.40;;;;;;;;;;5076598;28;20072;-93
2022/01/16 10:03:03;;;;;;;103.15;60.83;;;;;;;;;;5071097;28;20039;-93
2022/01/16 10:11:40;;;;;;;67.55;40.88;;;;;;;;;;5071719;28;20085;-95
2022/01/16 10:14:22;;;;;;;61.65;36.70;;;;;;;;;;5077858;28;20059;-94
2022/01/16 10:16:49;;;;;;;61.47;37.35;;;;;;;;;;5062114;28;20119;-95
2022/01/16 10:19:23;;;;;;;63.05;37.47;;;;;;;;;;5079941;28;20024;-96
2022/01/16 10:22:26;;;;;;;63.85;38.53;;;;;;;;;;5078302;28;20032;-96
2022/01/16 10:24:52;;;;;;;;;;;;;;;;;;5070705;28;20036;-96
2022/01/16 10:27:21;;;;;;;64.28;38.95;;;;;;;;;;5076939;28;19909;-96
2022/01/16 10:29:49;;;;;;;66.65;40.55;;;;;;;;;;5077793;28;20020;-93
2022/01/16 10:32:17;;;;;;;65.13;39.60;;;;;;;;;;5077296;28;20119;-92
2022/01/16 10:40:50;;;;;;;65.38;37.92;;;;;;;;;;5078357;28;20035;-94
2022/01/16 10:43:25;;;;;;;63.20;36.63;;;;;;;;;;5057401;28;20057;-96
2022/01/16 10:46:00;;;;;;;66.85;37.60;;;;;;;;;;5074785;28;20021;-93
2022/01/16 10:48:26;;;;;;;69.82;40.75;;;;;;;;;;5079271;28;20050;-94
2022/01/16 10:50:52;;;;;;;60.45;36.05;;;;;;;;;;5080633;28;20020;-93
2022/01/16 10:53:21;;;;;;;64.70;38.10;;;;;;;;;;5080983;28;20311;-92
2022/01/16 10:55:49;;;;;;;73.90;40.15;;;;;;;;;;5080558;28;20020;-95
2022/01/16 10:58:19;;;;;;;67.22;40.17;;;;;;;;;;5081461;28;20032;-92
2022/01/16 11:00:52;;;;;;;71.13;41.10;;;;;;;;;;5081076;28;20052;-94
2022/01/16 11:03:18;;;;;;;68.10;40.92;;;;;;;;;;5080246;28;20036;-93
2022/01/16 11:05:45;;;;;;;60.38;37.58;;;;;;;;;;5080695;28;20025;-93
2022/01/16 11:08:13;;;;;;;71.55;40.40;;;;;;;;;;5080188;28;20032;-93
2022/01/16 11:10:43;;;;;;;72.85;41.80;;;;;;;;;;5081533;28;20028;-94
2022/01/16 11:13:10;;;;;;;66.10;40.22;;;;;;;;;;5080650;28;20371;-95
2022/01/16 11:15:38;;;;;;;69.57;41.20;;;;;;;;;;5081362;28;20030;-94
2022/01/16 11:18:05;;;;;;;67.47;42.72;;;;;;;;;;5081303;28;20016;-94
2022/01/16 11:26:21;;;;;;;76.53;45.22;;;;;;;;;;5080667;28;20072;-93
2022/01/16 11:28:48;;;;;;;84.55;49.13;;;;;;;;;;5081028;28;20025;-92
2022/01/16 11:31:15;;;;;;;81.50;49.63;;;;;;;;;;5081011;28;20043;-92
2022/01/16 11:33:41;;;;;;;88.13;49.92;;;;;;;;;;5080404;28;20028;-92
2022/01/16 11:36:18;;;;;;;87.30;51.90;;;;;;;;;;5080199;28;20029;-90
2022/01/16 11:41:57;;;;;;;97.13;55.08;;;;;;;;;;5177586;23;20064;-96
2022/01/16 11:47:57;;;;;;;70.78;41.42;;;;;;;;;;4986458;22;20100;-95
2022/01/16 11:56:42;;;;;;;66.00;39.13;;;;;;;;;;5040517;28;20016;-93
2022/01/16 11:59:31;;;;;;;73.57;40.80;;;;;;;;;;5036630;28;20030;-95
2022/01/16 12:02:01;;;;;;;60.47;35.53;;;;;;;;;;5035761;28;20022;-93
2022/01/16 12:04:31;;;;;;;58.42;34.28;;;;;;;;;;5020335;28;20022;-93
2022/01/16 12:16:29;;;;;;;56.92;33.20;;;;;;;;;;5020902;28;20033;-94
2022/01/16 12:18:55;;;;;;;57.92;30.80;;;;;;;;;;5026641;28;20041;-93
2022/01/16 12:21:31;;;;;;;56.08;30.52;;;;;;;;;;5037954;28;20032;-94
2022/01/16 12:23:57;;;;;;;65.57;33.92;;;;;;;;;;5040142;28;20022;-94
2022/01/16 15:42:44;;;;;;;170.40;81.32;;;;;;;;;;5038496;28;20343;-96
2022/01/16 15:45:38;;;;;;;154.25;76.03;;;;;;;;;;5044252;28;20051;-96
2022/01/16 15:51:00;;;;;;;228.30;93.20;;;;;;;;;;5420465;23;20050;-93
2022/01/16 15:53:27;;;;;;;193.02;88.95;;;;;;;;;;5022231;28;20030;-96
2022/01/16 15:55:54;;;;;;;152.07;75.85;;;;;;;;;;5026690;28;20025;-96
2022/01/16 15:58:20;;;;;;;120.05;66.60;;;;;;;;;;5023061;28;20022;-93
2022/01/16 16:00:47;;;;;;;140.63;75.25;;;;;;;;;;5019782;28;20029;-92
2022/01/16 16:03:14;;;;;;;128.82;71.20;;;;;;;;;;5020697;28;20072;-93
2022/01/16 16:05:40;;;;;;;179.85;89.70;;;;;;;;;;5020558;28;20033;-93
2022/01/16 16:08:06;;;;;;;193.38;85.35;;;;;;;;;;5020719;28;20029;-95
2022/01/16 16:10:34;;;;;;;185.43;80.43;;;;;;;;;;5020654;28;20025;-94
2022/01/16 16:13:00;;;;;;;129.38;65.32;;;;;;;;;;5002865;28;20062;-95
2022/01/16 16:15:28;;;;;;;102.85;59.22;;;;;;;;;;5002783;28;20033;-93
2022/01/16 16:17:54;;;;;;;99.25;56.92;;;;;;;;;;5025318;28;20050;-95
2022/01/16 16:20:21;;;;;;;101.35;56.25;;;;;;;;;;5020262;28;20030;-92
2022/01/16 16:22:51;;;;;;;102.07;58.90;;;;;;;;;;5020203;28;20029;-93
2022/01/16 16:25:18;;;;;;;107.18;59.58;;;;;;;;;;5020655;28;20315;-94
2022/01/16 16:27:44;;;;;;;111.95;63.55;;;;;;;;;;5020105;28;20030;-92
2022/01/16 16:30:11;;;;;;;109.70;62.83;;;;;;;;;;5020118;28;20022;-93
2022/01/16 16:32:37;;;;;;;139.77;74.85;;;;;;;;;;5020135;28;20030;-93
2022/01/16 16:35:03;;;;;;;153.07;77.43;;;;;;;;;;5002545;28;20028;-93
2022/01/16 16:37:29;;;;;;;181.30;80.78;;;;;;;;;;5001705;28;20057;-92
2022/01/16 16:39:55;;;;;;;188.15;86.97;;;;;;;;;;5036190;28;20029;-93
2022/01/16 16:42:21;;;;;;;229.15;93.43;;;;;;;;;;5021828;28;20040;-94
2022/01/16 16:44:49;;;;;;;373.85;132.13;;;;;;;;;;5039168;28;20022;-95
2022/01/16 16:47:15;;;;;;;379.30;153.80;;;;;;;;;;5039127;28;20034;-94
2022/01/16 16:49:42;;;;;;;290.48;131.88;;;;;;;;;;5039191;28;20055;-93
2022/01/16 16:52:09;;;;;;;333.05;132.50;;;;;;;;;;5020854;28;20399;-94
2022/01/16 16:54:36;;;;;;;380.70;137.93;;;;;;;;;;5039114;28;20312;-94
2022/01/16 16:57:03;;;;;;;287.23;123.05;;;;;;;;;;5039137;28;20037;-94
2022/01/16 16:59:30;;;;;;;231.93;108.28;;;;;;;;;;5038923;28;20030;-94
2022/01/16 17:01:56;;;;;;;156.45;81.68;;;;;;;;;;5039179;28;20403;-94
2022/01/16 17:04:22;;;;;;;132.20;72.30;;;;;;;;;;5039358;28;20021;-93
2022/01/16 17:06:49;;;;;;;162.93;71.47;;;;;;;;;;5039323;28;20021;-92
2022/01/16 17:09:15;;;;;;;193.43;74.43;;;;;;;;;;5021410;28;20033;-95
2022/01/16 17:11:42;;;;;;;197.32;72.63;;;;;;;;;;5038653;28;20026;-95
2022/01/16 17:14:08;;;;;;;175.57;74.78;;;;;;;;;;5038595;28;20025;-93
2022/01/16 17:16:35;;;;;;;174.52;74.30;;;;;;;;;;5038752;28;20032;-94
2022/01/16 17:19:09;;;;;;;199.75;81.75;;;;;;;;;;5038665;28;20041;-96
2022/01/16 17:21:35;;;;;;;190.43;76.43;;;;;;;;;;5038775;28;20018;-94
2022/01/16 17:24:02;;;;;;;177.07;71.53;;;;;;;;;;5020975;28;20053;-93
2022/01/16 17:26:28;;;;;;;380.23;126.00;;;;;;;;;;5021223;28;20065;-91
2022/01/16 17:28:54;;;;;;;309.10;107.07;;;;;;;;;;5039550;28;20034;-95
2022/01/16 17:31:20;;;;;;;220.70;87.78;;;;;;;;;;5021529;28;20036;-96
2022/01/16 17:33:46;;;;;;;150.82;71.50;;;;;;;;;;5038388;28;20025;-93
2022/01/16 17:36:12;;;;;;;123.65;66.32;;;;;;;;;;5038228;28;20403;-95
2022/01/16 17:38:38;;;;;;;108.45;61.50;;;;;;;;;;5037914;28;20021;-94
2022/01/16 17:41:04;;;;;;;100.75;57.92;;;;;;;;;;5038273;28;20364;-94
2022/01/16 17:43:30;;;;;;;93.28;56.15;;;;;;;;;;5020853;28;20021;-95
2022/01/16 17:45:57;;;;;;;98.72;61.53;;;;;;;;;;5038359;28;20033;-95
2022/01/16 17:48:24;;;;;;;109.22;61.95;;;;;;;;;;5022369;28;20033;-89
2022/01/16 17:53:55;;;;;;;121.30;74.05;;;;;;;;;;5037995;28;20087;-89
2022/01/16 17:56:24;;;;;;;106.78;62.40;;;;;;;;;;5037613;28;20071;-87
2022/01/16 17:58:51;;;;;;;89.72;55.22;;;;;;;;;;5019293;28;20331;-89
2022/01/16 18:01:18;;;;;;;83.85;51.92;;;;;;;;;;5020777;28;20030;-93
2022/01/16 18:03:44;;;;;;;91.65;54.70;;;;;;;;;;5038003;28;20029;-91
2022/01/16 18:06:11;;;;;;;83.10;51.03;;;;;;;;;;5037851;28;20022;-93
2022/01/16 18:08:38;;;;;;;78.03;48.38;;;;;;;;;;5037970;28;20037;-92
2022/01/16 18:11:04;;;;;;;81.32;49.00;;;;;;;;;;5037522;28;20462;-89
2022/01/16 18:13:30;;;;;;;71.65;45.03;;;;;;;;;;5020392;28;20044;-91
2022/01/16 18:15:56;;;;;;;75.10;46.55;;;;;;;;;;5037874;28;20033;-92
2022/01/16 18:18:28;;;;;;;80.75;49.97;;;;;;;;;;5020498;28;20430;-93
2022/01/16 18:20:55;;;;;;;80.07;50.17;;;;;;;;;;5020392;28;20045;-91
2022/01/16 18:23:21;;;;;;;88.05;53.35;;;;;;;;;;5020259;28;20040;-92
2022/01/16 18:25:47;;;;;;;83.75;52.35;;;;;;;;;;5037860;28;20045;-92
2022/01/16 18:28:14;;;;;;;83.55;50.10;;;;;;;;;;5037971;28;20028;-90
2022/01/16 18:30:40;;;;;;;87.72;51.85;;;;;;;;;;5037786;28;20386;-91
2022/01/16 18:33:06;;;;;;;91.85;52.75;;;;;;;;;;5020291;28;20323;-91
2022/01/16 18:35:33;;;;;;;84.78;49.90;;;;;;;;;;5020211;28;20061;-91
2022/01/16 18:37:59;;;;;;;91.05;53.47;;;;;;;;;;5037310;28;20022;-92
2022/01/16 18:40:25;;;;;;;89.93;52.28;;;;;;;;;;5020129;28;20037;-93
2022/01/16 18:42:51;;;;;;;93.55;52.58;;;;;;;;;;5037202;28;20029;-92
2022/01/16 18:45:19;;;;;;;88.97;53.83;;;;;;;;;;5020286;28;20100;-93
2022/01/16 18:47:47;;;;;;;94.82;56.60;;;;;;;;;;5020331;28;20319;-92
2022/01/16 18:50:14;;;;;;;93.40;57.95;;;;;;;;;;5037119;28;20049;-92
2022/01/16 18:52:42;;;;;;;94.55;57.05;;;;;;;;;;5037132;28;20029;-92
2022/01/16 18:55:09;;;;;;;91.82;56.05;;;;;;;;;;5037151;28;20021;-91
2022/01/16 18:57:36;;;;;;;92.95;54.55;;;;;;;;;;5037280;28;20028;-91
2022/01/16 19:00:05;;;;;;;88.47;53.20;;;;;;;;;;5019910;28;20022;-92
2022/01/16 19:02:31;;;;;;;87.55;52.83;;;;;;;;;;5019720;28;20370;-91
2022/01/16 19:04:57;;;;;;;90.55;53.90;;;;;;;;;;5019600;28;20335;-90
2022/01/16 19:07:23;;;;;;;93.03;51.58;;;;;;;;;;5037215;28;20034;-91
2022/01/16 19:09:49;;;;;;;93.07;53.85;;;;;;;;;;5038675;28;20029;-91
2022/01/16 19:12:15;;;;;;;95.47;54.97;;;;;;;;;;5023675;28;20037;-90
2022/01/16 19:14:43;;;;;;;90.82;54.45;;;;;;;;;;5023507;28;20037;-92
2022/01/16 19:17:09;;;;;;;93.45;54.83;;;;;;;;;;5041300;28;20022;-92
2022/01/16 19:19:35;;;;;;;94.70;52.80;;;;;;;;;;5023305;28;20038;-91
2022/01/16 19:22:02;;;;;;;96.82;53.78;;;;;;;;;;5040928;28;20021;-90
2022/01/16 19:24:28;;;;;;;101.05;56.00;;;;;;;;;;5040904;28;20026;-90
2022/01/16 19:26:55;;;;;;;97.13;58.38;;;;;;;;;;5041356;28;20030;-91
2022/01/16 19:29:22;;;;;;;125.45;67.18;;;;;;;;;;5041121;28;20025;-91
2022/01/16 19:31:49;;;;;;;132.63;69.72;;;;;;;;;;5040668;28;20021;-92
2022/01/16 19:34:15;;;;;;;130.38;71.78;;;;;;;;;;5040825;28;20116;-94
2022/01/16 19:36:41;;;;;;;131.57;72.07;;;;;;;;;;5040641;28;20022;-94